createdAt,value
2018-09-11T00:01:27.788Z,13.43
2018-09-11T00:03:55.140Z,11.00
2018-09-11T00:06:22.520Z,12.03
2018-09-11T00:08:50.252Z,11.17
2018-09-11T00:11:18.568Z,14.33
2018-09-11T00:13:46.148Z,9.67
2018-09-11T00:16:13.576Z,9.20
2018-09-11T00:18:40.920Z,11.10
2018-09-11T00:21:08.248Z,11.60
2018-09-11T00:23:35.620Z,11.23
2018-09-11T00:26:03.127Z,12.10
2018-09-11T00:28:30.607Z,9.83
2018-09-11T00:30:58.007Z,10.57
2018-09-11T00:33:25.425Z,10.57
2018-09-11T00:35:52.949Z,9.00
2018-09-11T00:38:20.528Z,12.03
2018-09-11T00:40:47.860Z,10.00
2018-09-11T00:43:15.203Z,10.67
2018-09-11T00:45:42.548Z,14.83
2018-09-11T00:48:09.917Z,11.53
2018-09-11T00:50:37.410Z,11.37
2018-09-11T00:53:04.857Z,12.00
2018-09-11T00:55:32.605Z,13.10
2018-09-11T00:58:00.096Z,12.10
2018-09-11T01:00:27.429Z,15.23
2018-09-11T01:02:54.782Z,13.20
2018-09-11T01:05:22.164Z,12.13
2018-09-11T01:07:49.584Z,11.10
2018-09-11T01:10:17.062Z,11.63
2018-09-11T01:12:44.329Z,11.90
2018-09-11T01:15:11.974Z,10.80
2018-09-11T01:17:39.336Z,10.73
2018-09-11T01:20:07.380Z,10.20
2018-09-11T01:22:34.760Z,11.90
2018-09-11T01:25:02.136Z,11.40
2018-09-11T01:27:29.504Z,10.77
2018-09-11T01:29:57.000Z,11.00
2018-09-11T01:32:24.360Z,10.43
2018-09-11T01:34:51.916Z,10.23
2018-09-11T01:37:19.244Z,9.63
2018-09-11T01:39:46.612Z,10.33
2018-09-11T01:42:13.967Z,8.03
2018-09-11T01:44:41.432Z,10.37
2018-09-11T01:47:08.794Z,9.67
2018-09-11T01:49:36.125Z,10.60
2018-09-11T01:52:03.618Z,9.47
2018-09-11T01:54:30.948Z,8.83
2018-09-11T01:56:58.280Z,10.17
2018-09-11T01:59:25.667Z,9.80
2018-09-11T02:01:53.721Z,9.43
2018-09-11T02:04:21.109Z,9.07
2018-09-11T02:06:48.568Z,8.93
2018-09-11T02:09:16.055Z,9.20
2018-09-11T02:11:43.460Z,8.87
2018-09-11T02:14:10.896Z,8.53
2018-09-11T02:16:38.237Z,9.70
2018-09-11T02:19:05.596Z,8.77
2018-09-11T02:21:32.954Z,10.00
2018-09-11T02:24:00.436Z,8.57
2018-09-11T02:26:27.824Z,12.27
2018-09-11T02:28:55.388Z,8.10
2018-09-11T02:31:22.744Z,9.20
2018-09-11T02:33:50.131Z,7.77
2018-09-11T02:36:17.495Z,9.03
2018-09-11T02:38:45.037Z,12.07
2018-09-11T02:41:12.656Z,9.70
2018-09-11T02:43:40.212Z,9.57
2018-09-11T02:46:07.549Z,8.53
2018-09-11T02:48:35.012Z,8.83
2018-09-11T02:51:02.500Z,10.07
2018-09-11T02:53:29.836Z,8.10
2018-09-11T02:55:57.170Z,7.97
2018-09-11T02:58:24.578Z,8.57
2018-09-11T03:00:52.596Z,11.97
2018-09-11T03:03:20.093Z,9.63
2018-09-11T03:05:47.580Z,7.83
2018-09-11T03:08:14.916Z,8.63
2018-09-11T03:10:42.240Z,8.50
2018-09-11T03:13:09.612Z,7.43
2018-09-11T03:15:37.023Z,7.47
2018-09-11T03:18:04.351Z,6.97
2018-09-11T03:20:31.972Z,6.10
2018-09-11T03:22:59.308Z,6.27
2018-09-11T03:25:26.628Z,4.80
2018-09-11T03:27:54.035Z,4.63
2018-09-11T03:30:21.475Z,6.37
2018-09-11T03:32:48.933Z,5.93
2018-09-11T03:35:16.395Z,6.27
2018-09-11T03:37:43.850Z,4.97
2018-09-11T03:40:11.280Z,5.17
2018-09-11T03:42:38.596Z,7.53
2018-09-11T03:45:06.044Z,5.73
2018-09-11T03:47:33.392Z,6.27
2018-09-11T03:50:00.809Z,6.37
2018-09-11T03:52:28.264Z,4.67
2018-09-11T03:54:55.613Z,4.93
2018-09-11T03:57:23.185Z,5.33
2018-09-11T03:59:50.514Z,8.87
2018-09-11T04:02:17.891Z,8.27
2018-09-11T04:04:45.218Z,8.37
2018-09-11T04:07:12.540Z,5.07
2018-09-11T04:09:39.895Z,4.63
2018-09-11T04:12:07.428Z,4.67
2018-09-11T04:14:34.764Z,4.67
2018-09-11T04:17:02.129Z,5.23
2018-09-11T04:19:29.684Z,8.27
2018-09-11T04:21:57.628Z,9.73
2018-09-11T04:24:25.000Z,7.67
2018-09-11T04:26:52.364Z,8.03
2018-09-11T04:29:19.804Z,7.97
2018-09-11T04:31:47.172Z,7.50
2018-09-11T04:34:14.663Z,6.33
2018-09-11T04:36:41.996Z,4.70
2018-09-11T04:39:09.700Z,4.93
2018-09-11T04:41:37.182Z,6.67
2018-09-11T04:44:04.528Z,4.67
2018-09-11T04:46:32.036Z,5.10
2018-09-11T04:48:59.473Z,10.23
2018-09-11T04:51:26.800Z,5.63
2018-09-11T04:53:54.400Z,7.57
2018-09-11T04:56:21.736Z,6.03
2018-09-11T04:58:49.908Z,7.93
2018-09-11T05:01:17.487Z,6.30
2018-09-11T05:03:44.833Z,6.07
2018-09-11T05:06:12.153Z,5.33
2018-09-11T05:08:39.512Z,6.33
2018-09-11T05:11:07.132Z,4.93
2018-09-11T05:13:34.471Z,9.33
2018-09-11T05:16:01.831Z,8.97
2018-09-11T05:18:29.264Z,5.67
2018-09-11T05:20:56.712Z,7.33
2018-09-11T05:23:24.104Z,6.77
2018-09-11T05:25:51.459Z,4.07
2018-09-11T05:28:19.514Z,6.37
2018-09-11T05:30:46.932Z,7.40
2018-09-11T05:33:14.312Z,6.20
2018-09-11T05:35:41.640Z,8.93
2018-09-11T05:38:09.228Z,6.97
2018-09-11T05:40:36.580Z,9.47
2018-09-11T05:43:04.132Z,5.70
2018-09-11T05:45:31.501Z,5.37
2018-09-11T05:47:58.889Z,4.93
2018-09-11T05:50:26.279Z,3.53
2018-09-11T05:52:53.884Z,3.53
2018-09-11T05:55:21.271Z,5.60
2018-09-11T05:57:48.679Z,6.40
2018-09-11T06:00:16.183Z,7.17
2018-09-11T06:02:43.583Z,5.73
2018-09-11T06:05:10.979Z,5.83
2018-09-11T06:07:38.407Z,5.73
2018-09-11T06:10:06.086Z,4.63
2018-09-11T06:12:33.486Z,6.40
2018-09-11T06:15:00.888Z,9.37
2018-09-11T06:17:28.275Z,5.23
2018-09-11T06:19:55.826Z,5.47
2018-09-11T06:22:23.359Z,6.73
2018-09-11T06:24:51.042Z,6.77
2018-09-11T06:27:18.429Z,5.33
2018-09-11T06:29:45.853Z,8.37
2018-09-11T06:32:13.259Z,8.63
2018-09-11T06:34:40.867Z,4.23
2018-09-11T06:37:08.359Z,9.27
2018-09-11T06:39:35.750Z,5.47
2018-09-11T06:42:03.238Z,16.10
2018-09-11T06:44:30.734Z,4.57
2018-09-11T06:46:58.296Z,9.70
2018-09-11T06:49:25.667Z,7.60
2018-09-11T06:51:53.399Z,5.13
2018-09-11T06:54:20.782Z,12.60
2018-09-11T06:56:48.155Z,6.80
2018-09-11T06:59:15.577Z,7.20
2018-09-11T07:01:43.007Z,8.50
2018-09-11T07:04:10.699Z,7.43
2018-09-11T07:06:38.111Z,11.13
2018-09-11T07:09:07.342Z,8.77
2018-09-11T07:11:34.887Z,7.07
2018-09-11T07:14:02.447Z,6.60
2018-09-11T07:16:29.919Z,7.20
2018-09-11T07:18:57.288Z,5.50
2018-09-11T07:21:24.832Z,9.97
2018-09-11T07:23:52.211Z,4.70
2018-09-11T07:26:19.589Z,6.23
2018-09-11T07:28:46.996Z,6.80
2018-09-11T07:31:14.369Z,8.57
2018-09-11T07:33:41.923Z,9.67
2018-09-11T07:36:09.560Z,4.83
2018-09-11T07:38:37.071Z,7.93
2018-09-11T07:41:04.447Z,9.90
2018-09-11T07:43:32.468Z,8.70
2018-09-11T07:45:59.878Z,8.97
2018-09-11T07:48:27.258Z,12.07
2018-09-11T07:50:54.635Z,9.13
2018-09-11T07:53:22.123Z,5.40
2018-09-11T07:55:50.002Z,10.83
2018-09-11T07:58:17.597Z,7.83
2018-09-11T08:00:45.122Z,10.03
2018-09-11T08:03:12.571Z,10.47
2018-09-11T08:05:40.036Z,8.43
2018-09-11T08:08:07.452Z,12.73
2018-09-11T08:10:34.827Z,12.10
2018-09-11T08:13:02.191Z,10.53
2018-09-11T08:15:29.609Z,7.70
2018-09-11T08:17:56.999Z,20.23
2018-09-11T08:20:24.399Z,7.60
2018-09-11T08:22:51.805Z,9.67
2018-09-11T08:25:19.208Z,18.63
2018-09-11T08:27:46.583Z,13.00
2018-09-11T08:30:13.999Z,9.30
2018-09-11T08:32:41.424Z,6.97
2018-09-11T08:35:08.925Z,8.63
2018-09-11T08:37:36.347Z,14.40
2018-09-11T08:40:03.836Z,8.07
2018-09-11T08:42:31.295Z,11.13
2018-09-11T08:44:58.783Z,7.80
2018-09-11T08:47:26.217Z,7.83
2018-09-11T08:49:53.584Z,8.87
2018-09-11T08:52:21.187Z,9.40
2018-09-11T08:54:48.557Z,10.50
2018-09-11T08:57:15.943Z,7.67
2018-09-11T08:59:43.336Z,7.67
2018-09-11T09:02:10.759Z,7.80
2018-09-11T09:04:38.136Z,7.63
2018-09-11T09:07:05.556Z,10.57
2018-09-11T09:09:32.955Z,7.37
2018-09-11T09:12:00.551Z,8.50
2018-09-11T09:14:27.929Z,6.67
2018-09-11T09:16:55.464Z,14.63
2018-09-11T09:19:22.871Z,10.50
2018-09-11T09:21:50.255Z,9.07
2018-09-11T09:24:17.783Z,7.90
2018-09-11T09:26:45.201Z,5.33
2018-09-11T09:29:12.575Z,9.53
2018-09-11T09:31:40.151Z,7.00
2018-09-11T09:34:07.533Z,7.97
2018-09-11T09:36:35.163Z,10.83
2018-09-11T09:39:02.658Z,9.07
2018-09-11T09:41:30.340Z,11.97
2018-09-11T09:43:57.754Z,10.77
2018-09-11T09:46:25.126Z,12.10
2018-09-11T09:48:52.535Z,11.10
2018-09-11T09:51:20.076Z,12.67
2018-09-11T09:53:47.488Z,12.50
2018-09-11T09:56:14.876Z,8.27
2018-09-11T09:58:42.243Z,6.93
2018-09-11T10:01:14.959Z,10.63
2018-09-11T10:03:42.368Z,10.83
2018-09-11T10:06:09.756Z,9.07
2018-09-11T10:08:37.172Z,10.73
2018-09-11T10:11:04.549Z,9.93
2018-09-11T10:13:31.935Z,14.83
2018-09-11T10:15:59.595Z,7.27
2018-09-11T10:18:27.003Z,10.20
2018-09-11T10:20:54.385Z,7.43
2018-09-11T10:23:21.783Z,9.03
2018-09-11T10:25:49.478Z,6.50
2018-09-11T10:28:16.979Z,9.07
2018-09-11T10:30:44.407Z,10.23
2018-09-11T10:33:11.876Z,10.77
2018-09-11T10:35:39.305Z,6.13
2018-09-11T10:38:06.910Z,10.23
2018-09-11T10:40:34.305Z,9.33
2018-09-11T10:43:01.900Z,5.27
2018-09-11T10:45:29.290Z,11.00
2018-09-11T10:47:56.689Z,14.00
2018-09-11T10:50:24.131Z,10.33
2018-09-11T10:52:51.491Z,8.67
2018-09-11T10:55:18.891Z,11.63
2018-09-11T10:57:46.396Z,15.93
2018-09-11T11:00:13.853Z,8.87
2018-09-11T11:02:41.251Z,6.93
2018-09-11T11:05:08.647Z,10.67
2018-09-11T11:07:36.220Z,10.90
2018-09-11T11:10:03.677Z,9.60
2018-09-11T11:12:31.060Z,8.90
2018-09-11T11:14:58.467Z,12.13
2018-09-11T11:17:25.853Z,9.83
2018-09-11T11:19:53.747Z,7.53
2018-09-11T11:22:21.223Z,9.47
2018-09-11T11:24:48.667Z,9.23
2018-09-11T11:27:16.075Z,8.53
2018-09-11T11:29:43.879Z,10.60
2018-09-11T11:32:11.271Z,8.60
2018-09-11T11:34:38.687Z,9.47
2018-09-11T11:37:06.375Z,7.87
2018-09-11T11:39:34.175Z,7.73
2018-09-11T11:42:01.611Z,11.87
2018-09-11T11:44:29.107Z,10.63
2018-09-11T11:46:56.491Z,9.83
2018-09-11T11:49:23.935Z,11.77
2018-09-11T11:51:51.367Z,8.40
2018-09-11T11:54:18.739Z,5.90
2018-09-11T11:56:46.179Z,10.83
2018-09-11T11:59:13.571Z,10.60
2018-09-11T12:01:41.160Z,10.00
2018-09-11T12:04:08.599Z,8.97
2018-09-11T12:06:36.049Z,9.00
2018-09-11T12:09:03.901Z,9.10
2018-09-11T12:11:31.270Z,7.00
2018-09-11T12:13:58.735Z,10.13
2018-09-11T12:16:26.122Z,9.77
2018-09-11T12:18:53.495Z,8.13
2018-09-11T12:21:21.138Z,7.90
2018-09-11T12:23:48.540Z,8.80
2018-09-11T12:26:15.940Z,10.77
2018-09-11T12:28:43.373Z,10.23
2018-09-11T12:31:10.968Z,10.13
2018-09-11T12:33:38.340Z,10.90
2018-09-11T12:36:06.155Z,9.47
2018-09-11T12:38:33.539Z,9.33
2018-09-11T12:41:00.950Z,14.57
2018-09-11T12:43:28.359Z,10.33
2018-09-11T12:45:55.766Z,11.90
2018-09-11T12:48:23.431Z,17.57
2018-09-11T12:50:50.602Z,11.57
2018-09-11T12:53:17.975Z,14.20
2018-09-11T12:55:45.355Z,10.13
2018-09-11T12:58:12.754Z,10.57
2018-09-11T13:00:40.406Z,11.00
2018-09-11T13:03:07.947Z,17.47
2018-09-11T13:05:35.368Z,14.30
2018-09-11T13:08:02.752Z,10.77
2018-09-11T13:10:30.231Z,14.70
2018-09-11T13:12:57.675Z,16.00
2018-09-11T13:15:25.054Z,11.93
2018-09-11T13:17:52.686Z,17.20
2018-09-11T13:20:20.100Z,10.63
2018-09-11T13:22:47.491Z,10.37
2018-09-11T13:25:14.919Z,10.97
2018-09-11T13:27:42.307Z,14.60
2018-09-11T13:30:09.967Z,9.80
2018-09-11T13:32:37.347Z,14.53
2018-09-11T13:35:04.795Z,14.20
2018-09-11T13:37:32.182Z,9.77
2018-09-11T13:39:59.593Z,11.40
2018-09-11T13:42:26.979Z,11.13
2018-09-11T13:44:54.427Z,19.77
2018-09-11T13:47:22.062Z,16.67
2018-09-11T13:49:49.321Z,21.20
2018-09-11T13:52:16.755Z,13.77
2018-09-11T13:54:44.248Z,14.90
2018-09-11T13:57:11.635Z,8.20
2018-09-11T13:59:39.083Z,13.67
2018-09-11T14:02:06.658Z,15.73
2018-09-11T14:04:34.055Z,10.43
2018-09-11T14:07:01.459Z,12.80
2018-09-11T14:09:28.864Z,12.17
2018-09-11T14:11:56.458Z,9.97
2018-09-11T14:14:23.903Z,9.60
2018-09-11T14:16:51.296Z,11.07
2018-09-11T14:19:18.706Z,9.57
2018-09-11T14:21:46.133Z,11.37
2018-09-11T14:24:13.756Z,9.33
2018-09-11T14:26:41.146Z,11.60
2018-09-11T14:29:08.735Z,15.67
2018-09-11T14:31:36.167Z,12.10
2018-09-11T14:34:03.543Z,12.63
2018-09-11T14:36:31.043Z,9.50
2018-09-11T14:38:58.452Z,16.23
2018-09-11T14:41:26.035Z,6.87
2018-09-11T14:43:53.464Z,12.53
2018-09-11T14:46:20.874Z,18.10
2018-09-11T14:48:48.283Z,14.27
2018-09-11T14:51:15.812Z,11.53
2018-09-11T14:53:43.223Z,10.37
2018-09-11T14:56:10.639Z,11.63
2018-09-11T14:58:38.051Z,12.07
2018-09-11T15:01:05.462Z,15.17
2018-09-11T15:03:32.899Z,16.60
2018-09-11T15:06:00.314Z,12.33
2018-09-11T15:08:27.695Z,12.43
2018-09-11T15:10:55.112Z,14.37
2018-09-11T15:13:22.559Z,12.53
2018-09-11T15:15:50.040Z,9.87
2018-09-11T15:18:17.520Z,14.93
2018-09-11T15:20:44.931Z,14.37
2018-09-11T15:23:12.407Z,11.63
2018-09-11T15:25:39.874Z,8.87
2018-09-11T15:28:07.262Z,8.83
2018-09-11T15:30:34.641Z,8.23
2018-09-11T15:33:02.035Z,7.97
2018-09-11T15:35:29.411Z,11.40
2018-09-11T15:37:56.871Z,9.50
2018-09-11T15:40:24.312Z,8.07
2018-09-11T15:42:51.851Z,10.53
2018-09-11T15:45:19.383Z,11.63
2018-09-11T15:47:46.755Z,8.57
2018-09-11T15:50:14.178Z,12.57
2018-09-11T15:52:41.613Z,10.70
2018-09-11T15:55:09.207Z,12.27
2018-09-11T15:57:36.588Z,9.23
2018-09-11T16:00:04.339Z,9.93
2018-09-11T16:02:31.831Z,7.63
2018-09-11T16:04:59.339Z,13.73
2018-09-11T16:07:27.018Z,10.53
2018-09-11T16:09:54.519Z,8.83
2018-09-11T16:12:21.895Z,17.50
2018-09-11T16:14:49.481Z,7.80
2018-09-11T16:17:16.875Z,7.80
2018-09-11T16:19:44.247Z,8.93
2018-09-11T16:22:11.907Z,8.80
2018-09-11T16:24:39.284Z,10.97
2018-09-11T16:27:06.675Z,9.93
2018-09-11T16:29:34.202Z,10.63
2018-09-11T16:32:01.674Z,11.33
2018-09-11T16:34:29.067Z,11.87
2018-09-11T16:36:56.580Z,11.63
2018-09-11T16:39:23.982Z,10.37
2018-09-11T16:41:51.400Z,12.70
2018-09-11T16:44:18.811Z,9.80
2018-09-11T16:46:46.239Z,14.00
2018-09-11T16:49:13.639Z,8.33
2018-09-11T16:51:41.063Z,11.23
2018-09-11T16:54:08.451Z,10.93
2018-09-11T16:56:35.859Z,12.37
2018-09-11T16:59:03.310Z,12.00
2018-09-11T17:01:30.771Z,11.17
2018-09-11T17:03:58.254Z,12.47
2018-09-11T17:06:25.730Z,10.70
2018-09-11T17:08:53.103Z,14.00
2018-09-11T17:11:20.775Z,17.53
2018-09-11T17:13:48.387Z,15.33
2018-09-11T17:16:15.767Z,16.67
2018-09-11T17:18:43.352Z,10.10
2018-09-11T17:21:10.781Z,10.60
2018-09-11T17:23:38.799Z,14.00
2018-09-11T17:26:06.496Z,11.87
2018-09-11T17:28:33.912Z,11.60
2018-09-11T17:31:01.473Z,11.40
2018-09-11T17:33:28.927Z,7.50
2018-09-11T17:35:56.396Z,10.53
2018-09-11T17:38:24.016Z,4.57
2018-09-11T17:40:51.918Z,6.13
2018-09-11T17:43:19.584Z,6.97
2018-09-11T17:45:46.999Z,6.27
2018-09-11T17:48:14.500Z,6.97
2018-09-11T17:50:41.883Z,5.07
2018-09-11T17:53:09.297Z,4.87
2018-09-11T17:55:36.672Z,7.47
2018-09-11T17:58:04.173Z,5.67
2018-09-11T18:00:31.588Z,3.00
2018-09-11T18:02:58.965Z,4.67
2018-09-11T18:05:26.405Z,5.50
2018-09-11T18:07:54.023Z,6.03
2018-09-11T18:10:21.395Z,3.97
2018-09-11T18:12:48.809Z,6.37
2018-09-11T18:15:16.244Z,4.30
2018-09-11T18:17:43.624Z,3.87
2018-09-11T18:20:11.157Z,6.10
2018-09-11T18:22:38.762Z,3.13
2018-09-11T18:25:06.507Z,4.27
2018-09-11T18:27:33.960Z,5.30
2018-09-11T18:30:01.391Z,4.77
2018-09-11T18:32:28.800Z,2.90
2018-09-11T18:34:56.178Z,4.60
2018-09-11T18:37:23.653Z,5.83
2018-09-11T18:39:51.208Z,4.17
2018-09-11T18:42:18.643Z,3.70
2018-09-11T18:44:46.047Z,3.43
2018-09-11T18:47:13.459Z,4.50
2018-09-11T18:49:40.872Z,5.03
2018-09-11T18:52:08.552Z,4.20
2018-09-11T18:54:35.967Z,2.90
2018-09-11T18:57:03.339Z,4.30
2018-09-11T18:59:30.749Z,5.40
2018-09-11T19:01:58.143Z,5.57
2018-09-11T19:04:25.747Z,3.93
2018-09-11T19:06:53.235Z,6.63
2018-09-11T19:09:20.612Z,3.70
2018-09-11T19:11:48.116Z,2.80
2018-09-11T19:14:15.591Z,5.60
2018-09-11T19:16:43.003Z,3.23
2018-09-11T19:19:10.860Z,3.97
2018-09-11T19:21:38.315Z,5.00
2018-09-11T19:24:05.712Z,4.63
2018-09-11T19:26:33.205Z,3.33
2018-09-11T19:29:00.635Z,5.00
2018-09-11T19:32:57.467Z,3.93
2018-09-11T19:35:24.934Z,3.30
2018-09-11T19:37:52.663Z,2.90
2018-09-11T19:40:20.097Z,4.33
2018-09-11T19:42:47.607Z,1.50
2018-09-11T19:45:14.992Z,4.30
2018-09-11T19:47:42.609Z,3.23
2018-09-11T19:50:10.085Z,2.43
2018-09-11T19:52:37.469Z,3.13
2018-09-11T19:55:04.987Z,3.27
2018-09-11T19:57:32.419Z,2.53
2018-09-11T20:00:00.080Z,2.00
2018-09-11T20:02:27.607Z,1.83
2018-09-11T20:04:55.162Z,3.83
2018-09-11T20:07:22.495Z,2.03
2018-09-11T20:09:49.972Z,1.83
2018-09-11T20:12:17.355Z,1.27
2018-09-11T20:14:44.956Z,2.77
2018-09-11T20:17:12.548Z,1.63
2018-09-11T20:19:40.179Z,2.83
2018-09-11T20:22:07.775Z,1.40
2018-09-11T20:24:35.413Z,1.10
2018-09-11T20:27:02.799Z,1.30
2018-09-11T20:29:30.347Z,2.30
2018-09-11T20:31:57.741Z,1.60
2018-09-11T20:34:25.175Z,2.00
2018-09-11T20:36:52.607Z,2.53
2018-09-11T20:39:19.980Z,2.53
2018-09-11T20:41:47.514Z,1.53
2018-09-11T20:44:15.089Z,4.23
2018-09-11T20:46:42.476Z,1.47
2018-09-11T20:49:09.863Z,2.97
2018-09-11T20:51:37.304Z,1.97
2018-09-11T20:54:04.723Z,2.00
2018-09-11T20:56:32.132Z,1.50
2018-09-11T20:58:59.881Z,3.30
2018-09-11T21:01:27.252Z,4.40
2018-09-11T21:03:54.719Z,3.27
2018-09-11T21:06:22.271Z,4.40
2018-09-11T21:08:49.924Z,3.83
2018-09-11T21:11:17.339Z,3.97
2018-09-11T21:13:44.906Z,5.97
2018-09-11T21:16:12.316Z,4.37
2018-09-11T21:18:39.751Z,5.43
2018-09-11T21:21:07.153Z,6.33
2018-09-11T21:23:34.607Z,10.80
2018-09-11T21:26:02.209Z,10.57
2018-09-11T21:28:29.591Z,4.87
2018-09-11T21:30:57.129Z,6.43
2018-09-11T21:33:24.550Z,4.73
2018-09-11T21:35:51.919Z,8.47
2018-09-11T21:38:19.403Z,4.13
2018-09-11T21:40:46.818Z,7.63
2018-09-11T21:43:14.187Z,9.00
2018-09-11T21:45:41.587Z,6.67
2018-09-11T21:48:08.987Z,11.97
2018-09-11T21:50:36.383Z,11.27
2018-09-11T21:53:03.778Z,7.90
2018-09-11T21:55:31.350Z,6.37
2018-09-11T21:57:58.736Z,6.57
2018-09-11T22:00:26.152Z,7.33
2018-09-11T22:02:53.563Z,8.13
2018-09-11T22:05:21.006Z,13.93
2018-09-11T22:07:48.637Z,10.73
2018-09-11T22:10:16.022Z,9.00
2018-09-11T22:12:43.519Z,9.40
2018-09-11T22:15:11.577Z,9.23
2018-09-11T22:17:39.170Z,12.53
2018-09-11T22:20:06.744Z,9.77
2018-09-11T22:22:34.235Z,9.93
2018-09-11T22:25:01.595Z,10.83
2018-09-11T22:27:29.188Z,10.57
2018-09-11T22:29:56.575Z,14.10
2018-09-11T22:32:24.063Z,7.47
2018-09-11T22:34:51.509Z,9.13
2018-09-11T22:37:18.985Z,11.57
2018-09-11T22:39:46.344Z,13.30
2018-09-11T22:42:13.781Z,11.30
2018-09-11T22:44:41.151Z,12.37
2018-09-11T22:47:08.561Z,10.90
2018-09-11T22:49:35.963Z,10.67
2018-09-11T22:52:03.511Z,11.13
2018-09-11T22:54:30.919Z,9.83
2018-09-11T22:56:58.374Z,12.80
2018-09-11T22:59:25.830Z,10.57
2018-09-11T23:01:53.235Z,13.07
2018-09-11T23:04:20.611Z,10.37
2018-09-11T23:06:47.995Z,9.87
2018-09-11T23:09:15.423Z,12.80
2018-09-11T23:11:42.815Z,13.50
2018-09-11T23:14:10.346Z,11.50
2018-09-11T23:16:37.771Z,11.10
2018-09-11T23:19:05.200Z,13.63
2018-09-11T23:21:33.039Z,10.93
2018-09-11T23:24:00.854Z,11.47
2018-09-11T23:26:28.294Z,13.50
2018-09-11T23:28:55.683Z,13.90
2018-09-11T23:31:23.152Z,13.60
2018-09-11T23:33:50.516Z,9.60
2018-09-11T23:36:18.051Z,11.17
2018-09-11T23:38:45.520Z,10.40
2018-09-11T23:41:12.959Z,11.97
2018-09-11T23:43:40.376Z,11.90
2018-09-11T23:46:07.875Z,14.50
2018-09-11T23:48:35.251Z,10.90
2018-09-11T23:51:02.676Z,11.33
2018-09-11T23:53:30.055Z,9.50
2018-09-11T23:55:57.439Z,14.87
2018-09-11T23:58:25.051Z,12.00
